sensor_id;sensor_type;location;lat;lon;timestamp;pressure;altitude;pressure_sealevel;temperature;humidity
50684;BME280;36654;45.042;38.994;2024-03-17T00:01:05;101560.41;;;10.01;65.68
50684;BME280;36654;45.042;38.994;2024-03-17T00:03:31;101563.13;;;10.02;65.27
50684;BME280;36654;45.042;38.994;2024-03-17T00:05:58;101554.28;;;10.02;65.15
50684;BME280;36654;45.042;38.994;2024-03-17T00:08:24;101527.25;;;9.82;64.83
50684;BME280;36654;45.042;38.994;2024-03-17T00:10:51;101570.19;;;10.03;64.67
50684;BME280;36654;45.042;38.994;2024-03-17T00:13:17;101552.19;;;9.90;64.59
50684;BME280;36654;45.042;38.994;2024-03-17T00:15:43;101547.88;;;9.93;64.61
50684;BME280;36654;45.042;38.994;2024-03-17T00:18:09;101555.94;;;9.98;64.53
50684;BME280;36654;45.042;38.994;2024-03-17T00:20:36;101568.34;;;9.99;64.95
50684;BME280;36654;45.042;38.994;2024-03-17T00:23:03;101543.22;;;9.85;65.37
50684;BME280;36654;45.042;38.994;2024-03-17T00:25:32;101560.19;;;9.91;66.74
50684;BME280;36654;45.042;38.994;2024-03-17T00:27:58;101566.19;;;9.86;68.09
50684;BME280;36654;45.042;38.994;2024-03-17T00:30:23;101553.53;;;9.74;68.81
50684;BME280;36654;45.042;38.994;2024-03-17T00:32:49;101568.47;;;9.72;69.52
50684;BME280;36654;45.042;38.994;2024-03-17T00:35:15;101569.28;;;9.69;70.04
50684;BME280;36654;45.042;38.994;2024-03-17T00:37:49;101559.31;;;9.61;71.08
50684;BME280;36654;45.042;38.994;2024-03-17T00:40:15;101517.00;;;9.31;71.29
50684;BME280;36654;45.042;38.994;2024-03-17T00:42:45;101576.00;;;9.58;71.75
50684;BME280;36654;45.042;38.994;2024-03-17T00:45:11;101570.63;;;9.55;72.08
50684;BME280;36654;45.042;38.994;2024-03-17T00:47:38;101525.81;;;9.29;72.57
50684;BME280;36654;45.042;38.994;2024-03-17T00:50:05;101565.25;;;9.52;72.54
50684;BME280;36654;45.042;38.994;2024-03-17T00:52:32;101558.00;;;9.45;73.02
50684;BME280;36654;45.042;38.994;2024-03-17T00:54:58;101567.97;;;9.54;73.15
50684;BME280;36654;45.042;38.994;2024-03-17T00:57:24;101570.56;;;9.52;73.33
50684;BME280;36654;45.042;38.994;2024-03-17T00:59:50;101570.56;;;9.52;73.34
50684;BME280;36654;45.042;38.994;2024-03-17T01:02:17;101565.25;;;9.52;73.56
50684;BME280;36654;45.042;38.994;2024-03-17T01:04:43;101572.22;;;9.48;73.70
50684;BME280;36654;45.042;38.994;2024-03-17T01:07:10;101563.28;;;9.45;73.92
50684;BME280;36654;45.042;38.994;2024-03-17T01:09:35;101527.41;;;9.24;73.90
50684;BME280;36654;45.042;38.994;2024-03-17T01:12:01;101561.59;;;9.47;74.07
50684;BME280;36654;45.042;38.994;2024-03-17T01:14:27;101566.88;;;9.47;74.03
50684;BME280;36654;45.042;38.994;2024-03-17T01:16:54;101565.00;;;9.43;74.20
50684;BME280;36654;45.042;38.994;2024-03-17T01:19:19;101563.13;;;9.39;74.23
50684;BME280;36654;45.042;38.994;2024-03-17T01:21:45;101561.31;;;9.38;74.30
50684;BME280;36654;45.042;38.994;2024-03-17T01:24:11;101559.34;;;9.31;74.47
50684;BME280;36654;45.042;38.994;2024-03-17T01:26:36;101561.16;;;9.32;74.59
50684;BME280;36654;45.042;38.994;2024-03-17T01:29:02;101564.81;;;9.37;74.86
50684;BME280;36654;45.042;38.994;2024-03-17T01:31:29;101562.94;;;9.33;74.91
50684;BME280;36654;45.042;38.994;2024-03-17T01:33:54;101569.91;;;9.31;74.72
50684;BME280;36654;45.042;38.994;2024-03-17T01:36:22;101568.06;;;9.26;75.39
50684;BME280;36654;45.042;38.994;2024-03-17T01:38:49;101580.34;;;9.24;75.23
50684;BME280;36654;45.042;38.994;2024-03-17T01:41:16;101577.53;;;9.20;75.37
50684;BME280;36654;45.042;38.994;2024-03-17T01:43:42;101555.94;;;9.06;75.48
50684;BME280;36654;45.042;38.994;2024-03-17T01:46:13;101580.13;;;9.18;75.42
50684;BME280;36654;45.042;38.994;2024-03-17T01:48:40;101583.50;;;9.13;75.75
50684;BME280;36654;45.042;38.994;2024-03-17T01:51:07;101576.34;;;9.09;75.70
50684;BME280;36654;45.042;38.994;2024-03-17T01:53:34;101540.41;;;8.87;76.20
50684;BME280;36654;45.042;38.994;2024-03-17T01:56:02;101580.53;;;9.02;76.01
50684;BME280;36654;45.042;38.994;2024-03-17T01:58:30;101569.88;;;8.99;75.95
50684;BME280;36654;45.042;38.994;2024-03-17T02:00:56;101570.78;;;9.01;76.23
50684;BME280;36654;45.042;38.994;2024-03-17T02:03:22;101579.66;;;9.03;76.42
50684;BME280;36654;45.042;38.994;2024-03-17T02:05:47;101551.94;;;8.90;76.42
50684;BME280;36654;45.042;38.994;2024-03-17T02:08:13;101564.34;;;8.91;76.49
50684;BME280;36654;45.042;38.994;2024-03-17T02:10:39;101564.38;;;8.93;76.45
50684;BME280;36654;45.042;38.994;2024-03-17T02:13:04;101529.34;;;8.71;76.57
50684;BME280;36654;45.042;38.994;2024-03-17T02:15:31;101567.81;;;8.90;76.62
50684;BME280;36654;45.042;38.994;2024-03-17T02:17:57;101576.75;;;8.94;76.84
50684;BME280;36654;45.042;38.994;2024-03-17T02:20:23;101572.22;;;8.90;76.74
50684;BME280;36654;45.042;38.994;2024-03-17T02:23:08;101577.28;;;8.83;76.75
50684;BME280;36654;45.042;38.994;2024-03-17T02:25:33;101574.63;;;8.82;76.92
50684;BME280;36654;45.042;38.994;2024-03-17T02:27:59;101524.34;;;8.53;77.10
50684;BME280;36654;45.042;38.994;2024-03-17T02:30:26;101583.25;;;8.76;77.28
50684;BME280;36654;45.042;38.994;2024-03-17T02:32:52;101584.97;;;8.76;77.38
50684;BME280;36654;45.042;38.994;2024-03-17T02:35:18;101562.38;;;8.57;77.56
50684;BME280;36654;45.042;38.994;2024-03-17T02:37:43;101570.38;;;8.60;77.61
50684;BME280;36654;45.042;38.994;2024-03-17T02:40:11;101592.66;;;8.68;77.83
50684;BME280;36654;45.042;38.994;2024-03-17T02:42:36;101589.19;;;8.69;77.95
50684;BME280;36654;45.042;38.994;2024-03-17T02:45:04;101594.25;;;8.63;77.87
50684;BME280;36654;45.042;38.994;2024-03-17T02:47:31;101585.38;;;8.61;78.33
50684;BME280;36654;45.042;38.994;2024-03-17T02:49:58;101592.38;;;8.59;78.52
50684;BME280;36654;45.042;38.994;2024-03-17T02:52:23;101575.19;;;8.46;78.42
50684;BME280;36654;45.042;38.994;2024-03-17T02:54:50;101587.75;;;8.52;78.74
50684;BME280;36654;45.042;38.994;2024-03-17T02:57:18;101582.31;;;8.47;78.98
50684;BME280;36654;45.042;38.994;2024-03-17T02:59:44;101578.41;;;8.37;78.94
50684;BME280;36654;45.042;38.994;2024-03-17T03:02:12;101595.44;;;8.46;79.27
50684;BME280;36654;45.042;38.994;2024-03-17T03:04:38;101596.25;;;8.43;79.23
50684;BME280;36654;45.042;38.994;2024-03-17T03:07:04;101590.06;;;8.42;79.35
50684;BME280;36654;45.042;38.994;2024-03-17T03:09:30;101588.47;;;8.48;79.46
50684;BME280;36654;45.042;38.994;2024-03-17T03:11:58;101581.19;;;8.40;79.62
50684;BME280;36654;45.042;38.994;2024-03-17T03:14:44;101601.53;;;8.43;79.44
50684;BME280;36654;45.042;38.994;2024-03-17T03:17:09;101594.34;;;8.39;79.70
50684;BME280;36654;45.042;38.994;2024-03-17T03:19:35;101602.31;;;8.40;79.78
50684;BME280;36654;45.042;38.994;2024-03-17T03:22:00;101574.56;;;8.28;79.81
50684;BME280;36654;45.042;38.994;2024-03-17T03:24:26;101600.41;;;8.36;79.84
50684;BME280;36654;45.042;38.994;2024-03-17T03:26:52;101607.47;;;8.37;79.96
50684;BME280;36654;45.042;38.994;2024-03-17T03:29:18;101600.41;;;8.36;79.86
50684;BME280;36654;45.042;38.994;2024-03-17T03:31:44;101605.94;;;8.42;79.99
50684;BME280;36654;45.042;38.994;2024-03-17T03:34:10;101616.56;;;8.44;79.91
50684;BME280;36654;45.042;38.994;2024-03-17T03:36:38;101614.81;;;8.45;79.72
50684;BME280;36654;45.042;38.994;2024-03-17T03:39:03;101611.88;;;8.37;79.40
50684;BME280;36654;45.042;38.994;2024-03-17T03:41:35;101610.81;;;8.32;79.57
50684;BME280;36654;45.042;38.994;2024-03-17T03:44:00;101620.44;;;8.30;79.71
50684;BME280;36654;45.042;38.994;2024-03-17T03:46:26;101624.75;;;8.28;79.99
50684;BME280;36654;45.042;38.994;2024-03-17T03:48:52;101603.03;;;8.11;80.06
50684;BME280;36654;45.042;38.994;2024-03-17T03:51:17;101627.13;;;8.20;80.14
50684;BME280;36654;45.042;38.994;2024-03-17T03:53:43;101619.00;;;8.14;80.34
50684;BME280;36654;45.042;38.994;2024-03-17T03:56:10;101635.00;;;8.18;80.29
50684;BME280;36654;45.042;38.994;2024-03-17T03:58:37;101629.78;;;8.20;80.67
50684;BME280;36654;45.042;38.994;2024-03-17T04:01:07;101631.56;;;8.21;80.45
50684;BME280;36654;45.042;38.994;2024-03-17T04:03:33;101577.78;;;7.93;80.65
50684;BME280;36654;45.042;38.994;2024-03-17T04:06:06;101629.97;;;8.26;80.35
50684;BME280;36654;45.042;38.994;2024-03-17T04:08:33;101610.75;;;8.05;80.30
50684;BME280;36654;45.042;38.994;2024-03-17T04:10:59;101629.69;;;8.17;80.30
50684;BME280;36654;45.042;38.994;2024-03-17T04:13:30;101642.03;;;8.18;80.38
50684;BME280;36654;45.042;38.994;2024-03-17T04:15:57;101635.75;;;8.14;80.52
50684;BME280;36654;45.042;38.994;2024-03-17T04:18:27;101648.88;;;8.13;80.57
50684;BME280;36654;45.042;38.994;2024-03-17T04:20:57;101632.31;;;8.17;80.60
50684;BME280;36654;45.042;38.994;2024-03-17T04:23:23;101638.50;;;8.17;80.62
50684;BME280;36654;45.042;38.994;2024-03-17T04:25:50;101615.41;;;8.12;80.42
50684;BME280;36654;45.042;38.994;2024-03-17T04:28:16;101639.38;;;8.18;80.69
50684;BME280;36654;45.042;38.994;2024-03-17T04:30:42;101597.44;;;8.02;80.63
50684;BME280;36654;45.042;38.994;2024-03-17T04:33:09;101639.66;;;8.26;80.36
50684;BME280;36654;45.042;38.994;2024-03-17T04:35:36;101614.63;;;8.14;80.13
50684;BME280;36654;45.042;38.994;2024-03-17T04:38:02;101627.19;;;8.21;80.38
50684;BME280;36654;45.042;38.994;2024-03-17T04:40:27;101612.94;;;8.16;80.31
50684;BME280;36654;45.042;38.994;2024-03-17T04:42:53;101638.19;;;8.34;80.26
50684;BME280;36654;45.042;38.994;2024-03-17T04:45:19;101609.81;;;8.28;79.97
50684;BME280;36654;45.042;38.994;2024-03-17T04:47:44;101642.91;;;8.42;79.77
50684;BME280;36654;45.042;38.994;2024-03-17T04:50:10;101634.03;;;8.40;79.56
50684;BME280;36654;45.042;38.994;2024-03-17T04:52:38;101635.84;;;8.41;79.83
50684;BME280;36654;45.042;38.994;2024-03-17T04:55:05;101637.53;;;8.39;79.74
50684;BME280;36654;45.042;38.994;2024-03-17T04:57:32;101640.97;;;8.38;79.88
50684;BME280;36654;45.042;38.994;2024-03-17T04:59:57;101591.56;;;8.10;79.61
50684;BME280;36654;45.042;38.994;2024-03-17T05:02:23;101642.81;;;8.39;79.72
50684;BME280;36654;45.042;38.994;2024-03-17T05:04:51;101641.91;;;8.39;79.97
50684;BME280;36654;45.042;38.994;2024-03-17T05:07:16;101638.31;;;8.37;79.95
50684;BME280;36654;45.042;38.994;2024-03-17T05:09:43;101641.13;;;8.41;80.04
50684;BME280;36654;45.042;38.994;2024-03-17T05:12:11;101652.59;;;8.42;79.79
50684;BME280;36654;45.042;38.994;2024-03-17T05:14:36;101655.94;;;8.38;79.77
50684;BME280;36654;45.042;38.994;2024-03-17T05:17:02;101641.63;;;8.31;79.91
50684;BME280;36654;45.042;38.994;2024-03-17T05:19:28;101653.50;;;8.42;79.76
50684;BME280;36654;45.042;38.994;2024-03-17T05:21:53;101643.47;;;8.34;79.88
50684;BME280;36654;45.042;38.994;2024-03-17T05:24:19;101601.69;;;8.22;79.86
50684;BME280;36654;45.042;38.994;2024-03-17T05:26:45;101647.50;;;8.48;79.64
50684;BME280;36654;45.042;38.994;2024-03-17T05:29:11;101657.50;;;8.57;79.63
50684;BME280;36654;45.042;38.994;2024-03-17T05:31:37;101656.75;;;8.61;79.51
50684;BME280;36654;45.042;38.994;2024-03-17T05:34:06;101650.72;;;8.65;79.32
50684;BME280;36654;45.042;38.994;2024-03-17T05:36:32;101659.72;;;8.70;79.13
50684;BME280;36654;45.042;38.994;2024-03-17T05:38:59;101668.53;;;8.71;78.86
50684;BME280;36654;45.042;38.994;2024-03-17T05:41:25;101658.59;;;8.63;78.61
50684;BME280;36654;45.042;38.994;2024-03-17T05:43:51;101675.38;;;8.64;78.76
50684;BME280;36654;45.042;38.994;2024-03-17T05:46:17;101678.84;;;8.63;78.80
50684;BME280;36654;45.042;38.994;2024-03-17T05:48:43;101672.78;;;8.66;78.58
50684;BME280;36654;45.042;38.994;2024-03-17T05:51:11;101668.28;;;8.63;78.72
50684;BME280;36654;45.042;38.994;2024-03-17T05:53:38;101668.38;;;8.66;78.72
50684;BME280;36654;45.042;38.994;2024-03-17T05:56:06;101681.75;;;8.71;78.69
50684;BME280;36654;45.042;38.994;2024-03-17T05:58:33;101680.75;;;8.67;78.56
50684;BME280;36654;45.042;38.994;2024-03-17T06:01:02;101677.16;;;8.65;78.39
50684;BME280;36654;45.042;38.994;2024-03-17T06:03:28;101669.13;;;8.62;78.32
50684;BME280;36654;45.042;38.994;2024-03-17T06:05:53;101685.19;;;8.68;78.55
50684;BME280;36654;45.042;38.994;2024-03-17T06:08:19;101678.06;;;8.66;78.41
50684;BME280;36654;45.042;38.994;2024-03-17T06:10:47;101688.94;;;8.75;78.22
50684;BME280;36654;45.042;38.994;2024-03-17T06:13:14;101688.06;;;8.74;78.20
50684;BME280;36654;45.042;38.994;2024-03-17T06:15:42;101689.69;;;8.71;78.00
50684;BME280;36654;45.042;38.994;2024-03-17T06:18:11;101689.69;;;8.71;78.30
50684;BME280;36654;45.042;38.994;2024-03-17T06:20:42;101676.28;;;8.64;78.02
50684;BME280;36654;45.042;38.994;2024-03-17T06:23:09;101685.19;;;8.68;78.09
50684;BME280;36654;45.042;38.994;2024-03-17T06:25:46;101687.19;;;8.75;78.05
50684;BME280;36654;45.042;38.994;2024-03-17T06:28:15;101690.00;;;8.80;77.81
50684;BME280;36654;45.042;38.994;2024-03-17T06:30:55;101673.97;;;8.75;77.53
50684;BME280;36654;45.042;38.994;2024-03-17T06:33:21;101697.13;;;8.82;77.49
50684;BME280;36654;45.042;38.994;2024-03-17T06:35:47;101689.84;;;8.75;77.47
50684;BME280;36654;45.042;38.994;2024-03-17T06:38:13;101686.25;;;8.73;77.31
50684;BME280;36654;45.042;38.994;2024-03-17T06:40:40;101704.34;;;8.87;77.38
50684;BME280;36654;45.042;38.994;2024-03-17T06:43:07;101697.38;;;8.89;77.28
50684;BME280;36654;45.042;38.994;2024-03-17T06:45:33;101703.47;;;8.88;77.21
50684;BME280;36654;45.042;38.994;2024-03-17T06:47:59;101693.44;;;8.77;77.18
50684;BME280;36654;45.042;38.994;2024-03-17T06:50:25;101700.03;;;8.90;77.34
50684;BME280;36654;45.042;38.994;2024-03-17T06:52:52;101665.16;;;8.75;77.27
50684;BME280;36654;45.042;38.994;2024-03-17T06:55:19;101693.94;;;8.93;77.36
50684;BME280;36654;45.042;38.994;2024-03-17T06:57:46;101695.63;;;8.91;77.35
50684;BME280;36654;45.042;38.994;2024-03-17T07:00:12;101689.28;;;8.84;77.22
50684;BME280;36654;45.042;38.994;2024-03-17T07:02:43;101695.63;;;8.91;77.15
50684;BME280;36654;45.042;38.994;2024-03-17T07:05:13;101700.03;;;8.90;77.11
50684;BME280;36654;45.042;38.994;2024-03-17T07:07:42;101685.69;;;8.83;77.23
50684;BME280;36654;45.042;38.994;2024-03-17T07:10:09;101708.13;;;8.95;77.30
50684;BME280;36654;45.042;38.994;2024-03-17T07:12:36;101684.38;;;8.96;77.45
50684;BME280;36654;45.042;38.994;2024-03-17T07:15:02;101705.00;;;9.06;77.06
50684;BME280;36654;45.042;38.994;2024-03-17T07:17:28;101699.88;;;9.11;76.94
50684;BME280;36654;45.042;38.994;2024-03-17T07:19:54;101692.84;;;9.13;76.57
50684;BME280;36654;45.042;38.994;2024-03-17T07:22:21;101698.91;;;9.09;76.16
50684;BME280;36654;45.042;38.994;2024-03-17T07:24:48;101692.75;;;9.10;76.37
50684;BME280;36654;45.042;38.994;2024-03-17T07:27:15;101693.72;;;9.12;76.18
50684;BME280;36654;45.042;38.994;2024-03-17T07:29:41;101695.81;;;9.22;76.04
50684;BME280;36654;45.042;38.994;2024-03-17T07:32:06;101659.00;;;9.03;76.06
50684;BME280;36654;45.042;38.994;2024-03-17T07:34:32;101706.69;;;9.32;75.71
50684;BME280;36654;45.042;38.994;2024-03-17T07:36:58;101697.16;;;9.37;76.02
50684;BME280;36654;45.042;38.994;2024-03-17T07:39:29;101679.28;;;9.29;75.48
50684;BME280;36654;45.042;38.994;2024-03-17T07:42:01;101688.25;;;9.35;74.95
50684;BME280;36654;45.042;38.994;2024-03-17T07:44:29;101685.44;;;9.28;75.21
50684;BME280;36654;45.042;38.994;2024-03-17T07:47:00;101695.72;;;9.48;75.07
50684;BME280;36654;45.042;38.994;2024-03-17T07:49:26;101690.53;;;9.51;75.13
50684;BME280;36654;45.042;38.994;2024-03-17T07:51:51;101691.81;;;9.64;74.70
50684;BME280;36654;45.042;38.994;2024-03-17T07:54:17;101680.56;;;9.72;74.29
50684;BME280;36654;45.042;38.994;2024-03-17T07:56:44;101711.28;;;9.96;73.89
50684;BME280;36654;45.042;38.994;2024-03-17T07:59:11;101696.28;;;9.97;73.39
50684;BME280;36654;45.042;38.994;2024-03-17T08:01:40;101705.19;;;9.99;73.24
50684;BME280;36654;45.042;38.994;2024-03-17T08:04:06;101643.41;;;9.69;72.99
50684;BME280;36654;45.042;38.994;2024-03-17T08:06:32;101693.78;;;10.01;72.62
50684;BME280;36654;45.042;38.994;2024-03-17T08:08:58;101682.31;;;10.02;72.86
50684;BME280;36654;45.042;38.994;2024-03-17T08:11:24;101652.56;;;9.81;72.49
50684;BME280;36654;45.042;38.994;2024-03-17T08:13:52;101688.03;;;10.18;72.90
50684;BME280;36654;45.042;38.994;2024-03-17T08:16:19;101663.16;;;10.11;72.44
50684;BME280;36654;45.042;38.994;2024-03-17T08:18:45;101659.78;;;10.18;72.19
50684;BME280;36654;45.042;38.994;2024-03-17T08:21:11;101692.28;;;10.41;71.73
50684;BME280;36654;45.042;38.994;2024-03-17T08:23:37;101663.88;;;10.37;71.63
50684;BME280;36654;45.042;38.994;2024-03-17T08:26:07;101691.25;;;10.69;71.56
50684;BME280;36654;45.042;38.994;2024-03-17T08:28:34;101671.09;;;10.76;70.75
50684;BME280;36654;45.042;38.994;2024-03-17T08:31:03;101678.56;;;10.92;70.34
50684;BME280;36654;45.042;38.994;2024-03-17T08:33:29;101676.06;;;10.98;70.08
50684;BME280;36654;45.042;38.994;2024-03-17T08:35:56;101677.22;;;11.10;69.59
50684;BME280;36654;45.042;38.994;2024-03-17T08:38:22;101678.84;;;11.05;69.06
50684;BME280;36654;45.042;38.994;2024-03-17T08:40:52;101678.78;;;11.01;69.34
50684;BME280;36654;45.042;38.994;2024-03-17T08:43:19;101662.00;;;11.02;68.89
50684;BME280;36654;45.042;38.994;2024-03-17T08:45:53;101670.84;;;11.01;68.74
50684;BME280;36654;45.042;38.994;2024-03-17T08:48:19;101656.84;;;11.09;68.81
50684;BME280;36654;45.042;38.994;2024-03-17T08:50:50;101669.59;;;11.25;68.45
50684;BME280;36654;45.042;38.994;2024-03-17T08:53:16;101661.88;;;11.34;67.82
50684;BME280;36654;45.042;38.994;2024-03-17T08:55:42;101667.34;;;11.42;67.62
50684;BME280;36654;45.042;38.994;2024-03-17T08:58:08;101661.53;;;11.58;67.18
50684;BME280;36654;45.042;38.994;2024-03-17T09:00:34;101653.78;;;11.69;66.89
50684;BME280;36654;45.042;38.994;2024-03-17T09:03:02;101617.53;;;11.71;66.03
50684;BME280;36654;45.042;38.994;2024-03-17T09:05:28;101640.09;;;11.92;65.12
50684;BME280;36654;45.042;38.994;2024-03-17T09:07:54;101642.72;;;11.89;65.12
50684;BME280;36654;45.042;38.994;2024-03-17T09:10:21;101598.84;;;11.68;65.09
50684;BME280;36654;45.042;38.994;2024-03-17T09:12:46;101631.25;;;11.93;64.91
50684;BME280;36654;45.042;38.994;2024-03-17T09:15:13;101644.78;;;12.03;64.55
50684;BME280;36654;45.042;38.994;2024-03-17T09:17:39;101610.97;;;11.96;63.79
50684;BME280;36654;45.042;38.994;2024-03-17T09:20:06;101580.59;;;11.85;63.67
50684;BME280;36654;45.042;38.994;2024-03-17T09:22:40;101620.88;;;12.05;63.74
50684;BME280;36654;45.042;38.994;2024-03-17T09:25:06;101581.66;;;11.92;63.27
50684;BME280;36654;45.042;38.994;2024-03-17T09:27:35;101624.34;;;12.01;63.44
50684;BME280;36654;45.042;38.994;2024-03-17T09:30:05;101623.47;;;12.02;63.73
50684;BME280;36654;45.042;38.994;2024-03-17T09:32:37;101627.06;;;12.04;63.83
50684;BME280;36654;45.042;38.994;2024-03-17T09:35:03;101615.59;;;12.06;63.68
50684;BME280;36654;45.042;38.994;2024-03-17T09:37:30;101600.50;;;12.05;63.53
50684;BME280;36654;45.042;38.994;2024-03-17T09:39:57;101589.16;;;12.14;63.20
50684;BME280;36654;45.042;38.994;2024-03-17T09:42:25;101616.06;;;12.31;62.67
50684;BME280;36654;45.042;38.994;2024-03-17T09:44:52;101601.88;;;12.32;62.57
50684;BME280;36654;45.042;38.994;2024-03-17T09:47:20;101605.81;;;12.54;62.30
50684;BME280;36654;45.042;38.994;2024-03-17T09:49:47;101601.53;;;12.64;61.67
50684;BME280;36654;45.042;38.994;2024-03-17T09:52:24;101582.03;;;12.65;61.40
50684;BME280;36654;45.042;38.994;2024-03-17T09:55:12;101604.75;;;12.99;60.78
50684;BME280;36654;45.042;38.994;2024-03-17T09:57:40;101607.50;;;13.05;60.09
50684;BME280;36654;45.042;38.994;2024-03-17T10:00:14;101606.66;;;13.06;60.23
50684;BME280;36654;45.042;38.994;2024-03-17T10:02:44;101597.06;;;13.19;60.42
50684;BME280;36654;45.042;38.994;2024-03-17T10:05:21;101610.56;;;13.30;59.55
50684;BME280;36654;45.042;38.994;2024-03-17T10:07:48;101590.84;;;13.19;59.22
50684;BME280;36654;45.042;38.994;2024-03-17T10:10:20;101603.44;;;13.29;59.48
50684;BME280;36654;45.042;38.994;2024-03-17T10:12:50;101592.78;;;13.29;59.20
50684;BME280;36654;45.042;38.994;2024-03-17T10:15:17;101591.13;;;13.37;59.22
50684;BME280;36654;45.042;38.994;2024-03-17T10:17:44;101586.94;;;13.56;59.05
50684;BME280;36654;45.042;38.994;2024-03-17T10:20:20;101562.09;;;13.60;58.47
50684;BME280;36654;45.042;38.994;2024-03-17T10:23:07;101580.00;;;13.72;57.78
50684;BME280;36654;45.042;38.994;2024-03-17T10:25:38;101581.78;;;13.71;57.60
50684;BME280;36654;45.042;38.994;2024-03-17T10:28:10;101573.75;;;13.70;57.39
50684;BME280;36654;45.042;38.994;2024-03-17T10:30:36;101581.63;;;13.59;57.43
50684;BME280;36654;45.042;38.994;2024-03-17T10:33:02;101580.59;;;13.46;57.35
50684;BME280;36654;45.042;38.994;2024-03-17T10:35:36;101576.13;;;13.45;57.69
50684;BME280;36654;45.042;38.994;2024-03-17T10:38:09;101574.41;;;13.50;57.33
50684;BME280;36654;45.042;38.994;2024-03-17T10:40:35;101518.16;;;13.26;56.94
50684;BME280;36654;45.042;38.994;2024-03-17T10:43:05;101549.34;;;13.31;57.24
50684;BME280;36654;45.042;38.994;2024-03-17T10:45:32;101523.44;;;13.23;57.37
50684;BME280;36654;45.042;38.994;2024-03-17T10:48:07;101539.59;;;13.35;56.95
50684;BME280;36654;45.042;38.994;2024-03-17T10:50:36;101562.03;;;13.54;57.17
50684;BME280;36654;45.042;38.994;2024-03-17T10:53:04;101564.75;;;13.55;56.85
50684;BME280;36654;45.042;38.994;2024-03-17T10:55:44;101563.03;;;13.61;56.70
50684;BME280;36654;45.042;38.994;2024-03-17T11:00:56;101528.41;;;13.64;56.80
50684;BME280;36654;45.042;38.994;2024-03-17T11:03:23;101507.94;;;13.59;56.54
50684;BME280;36654;45.042;38.994;2024-03-17T11:05:50;101548.16;;;13.81;56.16
50684;BME280;36654;45.042;38.994;2024-03-17T11:08:18;101534.81;;;13.81;56.16
50684;BME280;36654;45.042;38.994;2024-03-17T11:10:51;101532.16;;;13.82;56.42
50684;BME280;36654;45.042;38.994;2024-03-17T11:13:25;101533.00;;;13.77;55.93
50684;BME280;36654;45.042;38.994;2024-03-17T11:15:51;101554.19;;;13.66;56.36
50684;BME280;36654;45.042;38.994;2024-03-17T11:21:18;101531.69;;;13.43;57.29
50684;BME280;36654;45.042;38.994;2024-03-17T11:23:57;101489.50;;;13.03;57.78
50684;BME280;36654;45.042;38.994;2024-03-17T11:26:28;101535.97;;;13.27;57.97
50684;BME280;36654;45.042;38.994;2024-03-17T11:28:54;101528.81;;;13.26;57.82
50684;BME280;36654;45.042;38.994;2024-03-17T11:34:06;101529.06;;;13.44;57.57
50684;BME280;36654;45.042;38.994;2024-03-17T11:39:06;101515.94;;;13.58;56.90
50684;BME280;36654;45.042;38.994;2024-03-17T11:41:43;101520.53;;;13.73;56.35
50684;BME280;36654;45.042;38.994;2024-03-17T11:47:02;101521.38;;;13.70;55.59
50684;BME280;36654;45.042;38.994;2024-03-17T11:49:30;101518.63;;;13.63;55.73
50684;BME280;36654;45.042;38.994;2024-03-17T11:51:58;101513.22;;;13.55;55.92
50684;BME280;36654;45.042;38.994;2024-03-17T11:54:32;101518.53;;;13.53;56.00
50684;BME280;36654;45.042;38.994;2024-03-17T11:57:09;101515.00;;;13.53;55.99
50684;BME280;36654;45.042;38.994;2024-03-17T11:59:36;101510.47;;;13.50;55.85
50684;BME280;36654;45.042;38.994;2024-03-17T12:02:10;101486.41;;;13.38;55.83
50684;BME280;36654;45.042;38.994;2024-03-17T12:04:42;101505.13;;;13.47;55.93
50684;BME280;36654;45.042;38.994;2024-03-17T12:07:15;101506.03;;;13.49;56.10
50684;BME280;36654;45.042;38.994;2024-03-17T12:09:42;101509.66;;;13.54;55.94
50684;BME280;36654;45.042;38.994;2024-03-17T12:12:25;101509.75;;;13.61;55.85
50684;BME280;36654;45.042;38.994;2024-03-17T12:14:56;101493.63;;;13.48;55.99
50684;BME280;36654;45.042;38.994;2024-03-17T12:17:23;101515.94;;;13.58;56.04
50684;BME280;36654;45.042;38.994;2024-03-17T12:19:50;101495.47;;;13.55;55.25
50684;BME280;36654;45.042;38.994;2024-03-17T12:22:21;101494.66;;;13.61;55.27
50684;BME280;36654;45.042;38.994;2024-03-17T12:25:16;101516.97;;;13.74;55.11
50684;BME280;36654;45.042;38.994;2024-03-17T12:27:44;101510.75;;;13.73;54.91
50684;BME280;36654;45.042;38.994;2024-03-17T12:30:11;101495.63;;;13.71;55.19
50684;BME280;36654;45.042;38.994;2024-03-17T12:32:36;101516.13;;;13.76;54.89
50684;BME280;36654;45.042;38.994;2024-03-17T12:35:02;101494.72;;;13.70;54.69
50684;BME280;36654;45.042;38.994;2024-03-17T12:37:34;101508.03;;;13.69;54.49
50684;BME280;36654;45.042;38.994;2024-03-17T12:40:00;101491.09;;;13.62;54.34
50684;BME280;36654;45.042;38.994;2024-03-17T12:42:27;101495.50;;;13.58;54.77
50684;BME280;36654;45.042;38.994;2024-03-17T12:45:00;101499.00;;;13.54;54.84
50684;BME280;36654;45.042;38.994;2024-03-17T12:47:32;101508.75;;;13.54;54.81
50684;BME280;36654;45.042;38.994;2024-03-17T12:50:01;101492.66;;;13.43;54.83
50684;BME280;36654;45.042;38.994;2024-03-17T12:52:28;101513.22;;;13.53;54.88
50684;BME280;36654;45.042;38.994;2024-03-17T12:55:07;101507.88;;;13.55;54.97
50684;BME280;36654;45.042;38.994;2024-03-17T13:00:45;101511.41;;;13.52;54.20
50684;BME280;36654;45.042;38.994;2024-03-17T13:03:23;101495.38;;;13.46;53.72
50684;BME280;36654;45.042;38.994;2024-03-17T13:05:50;101504.28;;;13.48;53.59